Time;durP1;ratioP1;P1;durP2;ratioP2;P2;SDS_P1;SDS_P2;PMS_P1;PMS_P2;Temp;Humidity;BMP_temperature;BMP_pressure;BME280_temperature;BME280_humidity;BME280_pressure;Samples;Min_cycle;Max_cycle;Signal;HPM_P1;HPM_P2
2023/04/30 00:00:14;;;;;;;76.18;50.88;;;;;;;11.57;59.10;102227.13;5075741;28;20083;-61
2023/04/30 00:02:40;;;;;;;47.17;33.67;;;;;;;11.52;59.53;102223.09;5077671;28;20021;-62
2023/04/30 00:05:05;;;;;;;28.00;17.58;;;;;;;11.47;59.22;102225.66;5074304;28;20067;-62
2023/04/30 00:07:33;;;;;;;17.95;15.05;;;;;;;11.40;59.43;102229.59;5073831;28;20020;-62
2023/04/30 00:09:58;;;;;;;18.20;12.80;;;;;;;11.38;59.73;102220.63;5069926;28;20379;-62
2023/04/30 00:12:23;;;;;;;12.95;11.55;;;;;;;11.38;59.80;102224.25;5071378;28;20024;-62
2023/04/30 00:14:49;;;;;;;19.33;11.35;;;;;;;11.33;59.77;102223.25;5077157;28;20040;-62
2023/04/30 00:17:15;;;;;;;15.38;10.40;;;;;;;11.31;59.78;102226.22;5068275;28;20499;-62
2023/04/30 00:19:41;;;;;;;14.23;12.55;;;;;;;11.31;59.97;102229.00;5077602;28;20028;-62
2023/04/30 00:22:07;;;;;;;15.13;11.60;;;;;;;11.26;60.42;102217.72;5082203;28;20062;-63
2023/04/30 00:24:33;;;;;;;22.52;17.20;;;;;;;11.26;60.15;102224.13;5085742;28;20041;-62
2023/04/30 00:26:58;;;;;;;19.90;14.65;;;;;;;11.26;60.45;102223.28;5075909;28;20115;-62
2023/04/30 00:29:23;;;;;;;31.45;22.27;;;;;;;11.21;60.87;102231.44;5080054;28;20108;-62
2023/04/30 00:31:49;;;;;;;149.32;110.45;;;;;;;11.21;60.54;102231.44;5069758;28;20494;-63
2023/04/30 00:34:14;;;;;;;137.40;101.57;;;;;;;11.20;60.97;102240.81;5083466;28;20040;-63
2023/04/30 00:36:39;;;;;;;75.47;58.95;;;;;;;11.20;60.98;102229.72;5086687;28;20030;-62
2023/04/30 00:39:05;;;;;;;70.22;54.88;;;;;;;11.17;60.79;102224.63;5079567;28;20029;-62
2023/04/30 00:41:31;;;;;;;85.32;60.97;;;;;;;11.11;61.00;102231.91;5070495;28;20120;-62
2023/04/30 00:43:57;;;;;;;73.72;52.10;;;;;;;11.07;61.06;102231.50;5083609;28;20432;-62
2023/04/30 00:46:22;;;;;;;45.25;33.67;;;;;;;11.05;61.17;102230.88;5077678;28;20039;-62
2023/04/30 00:48:48;;;;;;;27.65;20.80;;;;;;;11.06;61.66;102234.53;5086110;28;20128;-62
2023/04/30 00:51:13;;;;;;;15.48;13.25;;;;;;;11.07;61.75;102231.50;5082616;28;20036;-62
2023/04/30 00:53:40;;;;;;;15.13;11.13;;;;;;;11.05;61.63;102235.59;5085402;28;20086;-62
2023/04/30 00:56:08;;;;;;;13.90;10.80;;;;;;;11.03;61.76;102237.72;5081225;28;20078;-62
2023/04/30 00:58:34;;;;;;;14.65;10.60;;;;;;;11.00;61.84;102230.72;5078774;28;20056;-61
2023/04/30 01:01:01;;;;;;;14.85;9.82;;;;;;;10.97;61.54;102227.53;5090516;28;20458;-62
2023/04/30 01:03:27;;;;;;;14.05;10.63;;;;;;;10.96;61.80;102229.44;5091096;28;20036;-62
2023/04/30 01:05:53;;;;;;;14.98;9.90;;;;;;;10.91;61.78;102226.47;5092874;28;20165;-63
2023/04/30 01:08:18;;;;;;;15.18;9.85;;;;;;;10.89;61.79;102225.84;5078382;28;20509;-62
2023/04/30 01:10:51;;;;;;;14.20;10.20;;;;;;;10.84;62.02;102220.09;5077991;28;21329;-62
2023/04/30 01:13:28;;;;;;;;;;;;;;;11.09;61.00;102222.97;5073694;28;20507;-62
2023/04/30 01:16:01;;;;;;;15.15;11.27;;;;;;;10.90;62.03;102215.59;5073401;28;19925;-62
2023/04/30 01:18:32;;;;;;;14.70;11.20;;;;;;;10.82;62.27;102222.25;5076011;28;20037;-62
2023/04/30 01:21:03;;;;;;;14.10;10.68;;;;;;;10.80;62.29;102219.69;5072559;28;20060;-62
2023/04/30 01:23:34;;;;;;;14.93;10.85;;;;;;;10.75;62.32;102221.44;5094038;28;20032;-62
2023/04/30 01:26:37;;;;;;;13.43;10.85;;;;;;;10.76;62.22;102228.69;5081037;28;20074;-62
2023/04/30 01:29:03;;;;;;;;;;;;;;;10.96;61.03;102220.25;5083157;28;20119;-63
2023/04/30 01:31:28;;;;;;;14.35;11.15;;;;;;;10.75;62.29;102232.53;5093835;28;20006;-62
2023/04/30 01:33:53;;;;;;;15.55;10.73;;;;;;;10.73;61.97;102218.03;5091091;28;20035;-62
2023/04/30 01:36:42;;;;;;;14.65;10.80;;;;;;;10.69;62.35;102225.97;5078088;28;20133;-62
2023/04/30 01:39:46;;;;;;;13.85;10.88;;;;;;;10.61;62.34;102222.56;5073556;28;20033;-62
2023/04/30 01:42:19;;;;;;;14.40;11.55;;;;;;;10.53;62.58;102227.31;5076481;28;20380;-62
2023/04/30 01:44:58;;;;;;;13.60;10.90;;;;;;;10.52;62.63;102221.94;5081672;28;20031;-62
2023/04/30 01:47:37;;;;;;;16.92;10.77;;;;;;;10.48;62.50;102229.00;5076522;28;20044;-62
2023/04/30 01:50:33;;;;;;;13.30;11.73;;;;;;;10.49;62.54;102228.81;5072270;28;20052;-62
2023/04/30 01:53:00;;;;;;;14.25;11.00;;;;;;;10.39;62.69;102225.63;5072157;28;20051;-62
2023/04/30 01:55:34;;;;;;;12.15;10.85;;;;;;;10.41;62.96;102228.19;5073437;28;20028;-62
2023/04/30 01:58:04;;;;;;;12.70;11.07;;;;;;;10.37;63.07;102230.53;5071798;28;20025;-62
2023/04/30 02:00:29;;;;;;;12.45;10.95;;;;;;;10.32;63.06;102233.13;5072947;28;20067;-62
2023/04/30 02:02:55;;;;;;;16.65;11.00;;;;;;;10.32;63.23;102235.91;5083527;28;20056;-62
2023/04/30 02:05:20;;;;;;;15.73;11.35;;;;;;;10.32;63.45;102227.56;5086021;28;20387;-62
2023/04/30 02:07:48;;;;;;;14.00;11.10;;;;;;;10.30;63.56;102232.50;5093755;28;20034;-62
2023/04/30 02:10:15;;;;;;;13.73;12.00;;;;;;;10.22;63.37;102233.56;5087223;28;20166;-62
2023/04/30 02:12:40;;;;;;;14.13;11.48;;;;;;;10.25;63.50;102235.06;5073032;28;20364;-62
2023/04/30 02:15:06;;;;;;;14.05;11.13;;;;;;;10.23;63.45;102234.41;5072138;28;20094;-62
2023/04/30 02:17:32;;;;;;;14.45;11.25;;;;;;;10.17;63.74;102236.09;5080674;28;20530;-62
2023/04/30 02:19:58;;;;;;;13.77;11.43;;;;;;;10.15;63.77;102237.41;5091125;28;20020;-62
2023/04/30 02:22:23;;;;;;;14.95;11.63;;;;;;;10.20;63.86;102232.06;5077686;28;20090;-62
2023/04/30 02:24:49;;;;;;;14.38;11.35;;;;;;;10.13;63.93;102234.84;5072312;28;20029;-62
2023/04/30 02:27:14;;;;;;;13.13;10.90;;;;;;;10.19;63.63;102233.13;5073356;28;20043;-62
2023/04/30 02:29:39;;;;;;;13.95;12.10;;;;;;;10.09;63.74;102241.88;5069400;28;20536;-62
2023/04/30 02:32:05;;;;;;;15.20;11.77;;;;;;;10.13;64.17;102232.06;5072096;28;20025;-62
2023/04/30 02:34:30;;;;;;;14.32;11.05;;;;;;;10.16;63.77;102234.41;5073503;28;20142;-61
2023/04/30 02:36:55;;;;;;;15.43;11.35;;;;;;;10.12;64.08;102237.84;5090127;28;20031;-62
2023/04/30 02:39:21;;;;;;;16.27;11.93;;;;;;;10.11;63.87;102227.81;5089060;28;20773;-62
2023/04/30 02:41:46;;;;;;;14.18;11.80;;;;;;;10.06;64.10;102234.88;5081660;28;20024;-62
2023/04/30 02:44:11;;;;;;;17.33;11.73;;;;;;;10.07;64.16;102235.72;5072605;28;20029;-62
2023/04/30 02:46:37;;;;;;;15.95;11.82;;;;;;;10.02;64.13;102233.59;5071737;28;20034;-62
2023/04/30 02:49:02;;;;;;;15.15;12.05;;;;;;;9.97;64.00;102229.75;5071917;28;20063;-62
2023/04/30 02:51:27;;;;;;;12.63;11.15;;;;;;;9.95;64.00;102229.97;5081433;28;20044;-62
2023/04/30 02:53:53;;;;;;;14.73;12.13;;;;;;;9.91;64.22;102236.19;5089591;28;20052;-63
2023/04/30 02:56:18;;;;;;;15.93;12.10;;;;;;;9.91;64.42;102228.69;5089934;28;20032;-62
2023/04/30 02:58:43;;;;;;;13.82;11.63;;;;;;;9.90;64.44;102223.34;5092064;28;20024;-62
2023/04/30 03:01:09;;;;;;;14.50;11.27;;;;;;;9.89;64.56;102225.28;5087952;28;20046;-62
2023/04/30 03:03:34;;;;;;;12.98;10.65;;;;;;;9.90;64.24;102226.97;5078908;28;20123;-61
2023/04/30 03:05:59;;;;;;;13.45;11.40;;;;;;;9.88;64.29;102228.28;5080051;28;20842;-62
2023/04/30 03:08:25;;;;;;;18.33;12.20;;;;;;;9.84;64.28;102225.94;5091632;28;20047;-63
2023/04/30 03:10:51;;;;;;;15.10;12.15;;;;;;;9.83;64.22;102223.38;5088343;28;20428;-63
2023/04/30 03:13:16;;;;;;;14.57;12.27;;;;;;;9.79;63.95;102222.09;5070303;28;20029;-61
2023/04/30 03:15:42;;;;;;;13.25;10.85;;;;;;;9.79;63.88;102219.34;5065696;28;20099;-61
2023/04/30 03:18:07;;;;;;;15.43;12.13;;;;;;;9.78;64.27;102212.91;5048867;28;20029;-62
2023/04/30 03:20:32;;;;;;;16.80;12.20;;;;;;;9.79;64.27;102217.41;5048404;28;20078;-62
2023/04/30 03:22:58;;;;;;;15.23;11.88;;;;;;;9.75;64.23;102220.84;5051546;28;20045;-62
2023/04/30 03:25:23;;;;;;;13.57;11.48;;;;;;;9.68;63.53;102219.97;5056670;28;20395;-62
2023/04/30 03:27:49;;;;;;;14.90;12.95;;;;;;;9.62;64.38;102215.28;5069199;28;20028;-62
2023/04/30 03:30:14;;;;;;;14.52;12.07;;;;;;;9.60;64.08;102226.59;5050336;28;20460;-62
2023/04/30 03:32:39;;;;;;;14.18;12.20;;;;;;;9.61;64.37;102214.41;5067911;28;20035;-62
2023/04/30 03:35:05;;;;;;;18.17;11.82;;;;;;;9.64;64.38;102218.69;5061711;28;20028;-62
2023/04/30 03:37:30;;;;;;;16.58;12.13;;;;;;;9.61;64.41;102225.50;5054300;28;20123;-62
2023/04/30 03:39:56;;;;;;;17.58;12.65;;;;;;;9.59;64.72;102222.13;5051240;28;20108;-62
2023/04/30 03:42:21;;;;;;;15.55;13.20;;;;;;;9.57;64.52;102214.00;5050203;28;20503;-62
2023/04/30 03:44:47;;;;;;;13.88;12.48;;;;;;;9.56;64.84;102223.38;5055814;28;20020;-62
2023/04/30 03:47:12;;;;;;;15.30;12.63;;;;;;;9.56;65.00;102220.63;5066194;28;20032;-62
2023/04/30 03:49:37;;;;;;;17.25;12.73;;;;;;;9.55;65.18;102220.84;5068161;28;20482;-62
2023/04/30 03:52:04;;;;;;;17.80;13.13;;;;;;;9.54;65.08;102225.50;5051051;28;20028;-63
2023/04/30 03:54:29;;;;;;;13.57;11.75;;;;;;;9.50;64.76;102227.00;5053098;28;20047;-62
2023/04/30 03:56:55;;;;;;;16.50;12.27;;;;;;;9.53;64.96;102234.03;5049758;28;20025;-61
2023/04/30 03:59:20;;;;;;;14.80;12.30;;;;;;;9.47;64.86;102226.56;5050762;28;20104;-62
2023/04/30 04:01:46;;;;;;;15.82;12.23;;;;;;;9.51;64.74;102236.16;5051238;28;20028;-62
2023/04/30 04:04:12;;;;;;;15.13;12.82;;;;;;;9.46;65.19;102234.03;5052591;28;20043;-62
2023/04/30 04:06:37;;;;;;;15.82;12.52;;;;;;;9.48;65.87;102244.91;5050557;28;20124;-62
2023/04/30 04:09:05;;;;;;;16.60;13.32;;;;;;;9.54;65.75;102233.81;5049918;28;20170;-62
2023/04/30 04:11:30;;;;;;;15.35;12.93;;;;;;;9.56;65.82;102237.25;5048653;28;20480;-62
2023/04/30 04:13:56;;;;;;;15.98;12.77;;;;;;;9.51;66.18;102242.59;5070014;28;20025;-62
2023/04/30 04:16:21;;;;;;;17.08;13.85;;;;;;;9.52;65.91;102244.28;5079931;28;20059;-62
2023/04/30 04:18:46;;;;;;;15.70;12.85;;;;;;;9.50;65.70;102238.09;5078399;28;20032;-62
2023/04/30 04:21:12;;;;;;;16.13;12.95;;;;;;;9.48;65.84;102243.00;5069930;28;20444;-63
2023/04/30 04:23:37;;;;;;;17.35;12.85;;;;;;;9.52;66.38;102241.50;5085071;28;20476;-62
2023/04/30 04:26:02;;;;;;;15.90;12.70;;;;;;;9.48;66.07;102242.16;5086099;28;20039;-62
2023/04/30 04:28:27;;;;;;;18.30;12.90;;;;;;;9.45;65.91;102246.19;5079164;28;20044;-62
2023/04/30 04:30:53;;;;;;;16.40;12.80;;;;;;;9.45;66.36;102245.34;5076057;28;20040;-62
2023/04/30 04:33:18;;;;;;;18.73;13.52;;;;;;;9.46;65.52;102247.03;5090410;28;20550;-63
2023/04/30 04:35:43;;;;;;;15.85;12.77;;;;;;;9.53;66.45;102243.19;5089592;28;20032;-62
2023/04/30 04:38:08;;;;;;;17.50;13.50;;;;;;;9.49;66.60;102243.84;5073269;28;20808;-63
2023/04/30 04:40:36;;;;;;;17.20;13.52;;;;;;;9.51;66.47;102248.13;5070374;28;20031;-62
2023/04/30 04:43:01;;;;;;;16.73;14.10;;;;;;;9.50;66.99;102246.41;5076874;28;20686;-62
2023/04/30 04:45:27;;;;;;;22.58;14.68;;;;;;;9.50;66.84;102257.47;5071825;28;20020;-62
2023/04/30 04:47:52;;;;;;;15.90;13.27;;;;;;;9.50;66.55;102257.47;5090610;28;20402;-62
2023/04/30 04:50:17;;;;;;;16.23;13.85;;;;;;;9.55;67.01;102260.50;5090390;28;20047;-62
2023/04/30 04:52:43;;;;;;;17.05;13.35;;;;;;;9.58;66.85;102260.03;5088804;28;20055;-62
2023/04/30 04:55:08;;;;;;;17.15;14.15;;;;;;;9.58;66.79;102260.03;5090764;28;20047;-62
2023/04/30 04:57:33;;;;;;;16.17;13.30;;;;;;;9.58;66.72;102256.41;5072798;28;20059;-62
2023/04/30 04:59:59;;;;;;;17.20;14.00;;;;;;;9.57;66.71;102255.56;5069483;28;20084;-62
2023/04/30 05:02:24;;;;;;;14.15;12.60;;;;;;;9.59;66.79;102256.22;5068937;28;20070;-62
2023/04/30 05:04:50;;;;;;;15.48;13.23;;;;;;;9.59;67.19;102259.00;5072286;28;20063;-62
2023/04/30 05:07:18;;;;;;;14.73;13.13;;;;;;;9.57;67.07;102257.50;5069863;28;20067;-62
2023/04/30 05:09:45;;;;;;;16.30;14.02;;;;;;;9.60;67.14;102257.09;5068441;28;20033;-62
2023/04/30 05:12:11;;;;;;;15.85;13.50;;;;;;;9.66;67.28;102258.13;5070108;28;20086;-62
2023/04/30 05:14:36;;;;;;;16.63;14.35;;;;;;;9.64;67.34;102257.50;5070469;28;20405;-62
2023/04/30 05:17:01;;;;;;;16.50;14.77;;;;;;;9.70;67.56;102259.41;5083629;28;20449;-62
2023/04/30 05:19:27;;;;;;;17.33;14.18;;;;;;;9.70;67.33;102259.41;5090168;28;20067;-62
2023/04/30 05:21:52;;;;;;;15.80;13.95;;;;;;;9.72;67.34;102257.28;5089052;28;20057;-62
2023/04/30 05:24:17;;;;;;;18.65;14.25;;;;;;;9.76;67.06;102255.81;5090273;28;20028;-62
2023/04/30 05:26:42;;;;;;;17.70;14.68;;;;;;;9.76;67.54;102253.03;5074737;28;20520;-62
2023/04/30 05:29:09;;;;;;;17.35;15.50;;;;;;;9.76;67.40;102258.56;5072826;28;20052;-62
2023/04/30 05:31:35;;;;;;;18.15;15.27;;;;;;;9.82;67.47;102249.38;5070640;28;20105;-62
2023/04/30 05:34:00;;;;;;;18.60;15.10;;;;;;;9.84;67.27;102252.81;5072606;28;20390;-62
2023/04/30 05:36:26;;;;;;;18.65;16.40;;;;;;;9.83;67.28;102251.13;5073122;28;20476;-61
2023/04/30 05:38:51;;;;;;;18.17;15.25;;;;;;;9.86;67.07;102261.75;5073400;28;20032;-62
2023/04/30 05:41:17;;;;;;;17.83;15.32;;;;;;;9.85;67.43;102257.28;5071609;28;20107;-62
2023/04/30 05:43:42;;;;;;;18.25;15.02;;;;;;;9.86;67.36;102258.97;5080233;28;20032;-63
2023/04/30 05:46:07;;;;;;;16.70;14.98;;;;;;;9.89;67.67;102264.09;5075002;28;20456;-62
2023/04/30 05:48:32;;;;;;;17.52;14.45;;;;;;;9.88;67.93;102262.41;5071767;28;20842;-63
2023/04/30 05:50:58;;;;;;;17.15;15.10;;;;;;;9.90;67.91;102254.72;5072672;28;20032;-64
2023/04/30 05:53:23;;;;;;;18.08;15.05;;;;;;;9.92;67.95;102262.84;5072829;28;20074;-63
2023/04/30 05:55:49;;;;;;;16.27;14.48;;;;;;;9.95;67.99;102254.94;5072361;28;20090;-63
2023/04/30 05:58:14;;;;;;;15.27;13.65;;;;;;;9.97;67.88;102260.25;5081571;28;20032;-62
2023/04/30 06:00:40;;;;;;;16.90;14.18;;;;;;;10.01;68.25;102258.75;5089860;28;20020;-62
2023/04/30 06:03:06;;;;;;;16.20;13.05;;;;;;;10.04;68.25;102264.75;5088765;28;20028;-62
2023/04/30 06:05:31;;;;;;;15.77;12.32;;;;;;;10.13;68.38;102261.72;5076991;28;20473;-63
2023/04/30 06:07:57;;;;;;;15.20;13.57;;;;;;;10.21;67.93;102259.56;5074224;28;20170;-63
2023/04/30 06:10:23;;;;;;;19.17;13.98;;;;;;;10.26;67.93;102256.22;5079294;28;20051;-63
2023/04/30 06:12:48;;;;;;;14.82;12.45;;;;;;;10.37;68.15;102255.50;5073215;28;20219;-62
2023/04/30 06:15:13;;;;;;;14.70;12.20;;;;;;;10.48;67.67;102259.56;5078543;28;20029;-62
2023/04/30 06:17:39;;;;;;;14.77;11.88;;;;;;;10.55;67.34;102254.84;5091887;28;20071;-62
2023/04/30 06:20:05;;;;;;;12.10;10.90;;;;;;;10.69;66.90;102261.19;5093212;28;20039;-62
2023/04/30 06:22:32;;;;;;;13.73;11.93;;;;;;;10.75;66.46;102250.06;5088024;28;20580;-62
2023/04/30 06:24:57;;;;;;;15.07;10.95;;;;;;;10.84;66.44;102249.81;5081029;28;20048;-63
2023/04/30 06:27:22;;;;;;;13.98;11.52;;;;;;;10.91;66.02;102251.47;5093099;28;20031;-62
2023/04/30 06:29:48;;;;;;;14.70;11.85;;;;;;;10.95;65.76;102249.97;5079339;28;20039;-62
2023/04/30 06:32:13;;;;;;;16.73;12.43;;;;;;;10.98;66.20;102246.75;5070823;28;20077;-63
2023/04/30 06:34:38;;;;;;;14.43;11.88;;;;;;;11.03;65.54;102249.69;5072943;28;20024;-63
2023/04/30 06:37:04;;;;;;;15.02;12.07;;;;;;;11.10;66.04;102255.22;5072251;28;20025;-63
2023/04/30 06:39:29;;;;;;;12.68;11.38;;;;;;;11.18;65.69;102249.41;5072474;28;20028;-65
2023/04/30 06:41:55;;;;;;;14.40;11.20;;;;;;;11.25;64.96;102252.16;5076610;28;20395;-62
2023/04/30 06:44:20;;;;;;;12.93;10.90;;;;;;;11.35;65.40;102254.44;5068655;28;20068;-62
2023/04/30 06:46:45;;;;;;;12.00;10.70;;;;;;;11.46;65.42;102250.94;5061005;28;21514;-62
2023/04/30 06:49:10;;;;;;;13.05;11.73;;;;;;;11.64;64.90;102250.16;5084447;28;20058;-62
2023/04/30 06:51:36;;;;;;;16.13;11.60;;;;;;;11.71;63.58;102253.72;5083291;28;20107;-62
2023/04/30 06:54:01;;;;;;;13.68;11.32;;;;;;;11.75;63.27;102249.41;5080166;28;20080;-62
2023/04/30 06:56:26;;;;;;;13.38;11.23;;;;;;;11.81;63.63;102259.63;5090480;28;20051;-62
2023/04/30 06:58:52;;;;;;;13.88;11.15;;;;;;;11.85;63.41;102255.34;5087926;28;20047;-62
2023/04/30 07:01:17;;;;;;;15.88;12.35;;;;;;;11.85;63.18;102258.13;5082795;28;20102;-62
2023/04/30 07:03:42;;;;;;;15.18;12.75;;;;;;;11.93;63.17;102257.00;5078827;28;20033;-62
2023/04/30 07:06:08;;;;;;;16.52;12.73;;;;;;;12.01;62.80;102254.78;5071756;28;20032;-62
2023/04/30 07:08:33;;;;;;;18.00;12.85;;;;;;;12.04;63.15;102264.59;5081433;28;20032;-62
2023/04/30 07:10:58;;;;;;;13.90;12.38;;;;;;;12.14;63.09;102258.50;5091900;28;20122;-62
2023/04/30 07:13:23;;;;;;;16.90;12.57;;;;;;;12.23;63.06;102265.50;5072874;28;20025;-61
2023/04/30 07:15:50;;;;;;;14.20;12.30;;;;;;;12.27;62.89;102264.81;5080957;28;20048;-62
2023/04/30 07:18:16;;;;;;;15.68;11.73;;;;;;;12.38;62.39;102263.19;5079148;28;20028;-62
2023/04/30 07:20:41;;;;;;;13.82;11.52;;;;;;;12.43;61.84;102251.34;5074696;28;20016;-62
2023/04/30 07:23:06;;;;;;;16.35;12.45;;;;;;;12.48;62.20;102248.72;5079275;28;20036;-65
2023/04/30 07:25:31;;;;;;;13.88;11.07;;;;;;;12.56;62.28;102239.22;5070049;28;20036;-65
2023/04/30 07:27:57;;;;;;;18.63;11.93;;;;;;;12.65;62.04;102252.56;5069924;28;20451;-63
2023/04/30 07:30:22;;;;;;;16.00;12.07;;;;;;;12.71;61.18;102246.09;5071169;28;20115;-64
2023/04/30 07:32:47;;;;;;;16.70;12.05;;;;;;;12.77;61.85;102249.84;5070234;28;20091;-64
2023/04/30 07:35:13;;;;;;;13.68;11.35;;;;;;;12.85;61.26;102251.47;5068887;28;20074;-65
2023/04/30 07:37:39;;;;;;;14.90;11.60;;;;;;;12.94;61.20;102248.16;5078148;28;20110;-64
2023/04/30 07:40:06;;;;;;;12.40;10.95;;;;;;;13.02;60.25;102245.03;5090072;28;20118;-63
2023/04/30 07:42:32;;;;;;;15.40;12.30;;;;;;;13.11;60.44;102236.34;5087234;28;20024;-64
2023/04/30 07:44:57;;;;;;;12.90;11.15;;;;;;;13.17;60.45;102243.78;5073631;28;20035;-63
2023/04/30 07:47:22;;;;;;;12.70;11.32;;;;;;;13.23;60.06;102238.09;5078114;28;20678;-65
2023/04/30 07:49:48;;;;;;;13.70;10.65;;;;;;;13.31;60.33;102242.50;5079011;28;20122;-64
2023/04/30 07:52:13;;;;;;;13.68;11.07;;;;;;;13.45;59.34;102240.38;5072661;28;20036;-63
2023/04/30 07:54:39;;;;;;;12.70;11.23;;;;;;;13.54;59.42;102235.28;5078340;28;20136;-65
2023/04/30 07:57:05;;;;;;;15.00;11.35;;;;;;;13.59;58.63;102247.41;5075497;28;20479;-64
2023/04/30 07:59:31;;;;;;;16.92;12.18;;;;;;;13.64;58.94;102232.78;5072860;28;20592;-66
2023/04/30 08:01:56;;;;;;;13.00;11.00;;;;;;;13.72;58.92;102232.44;5070380;28;20119;-65
2023/04/30 08:04:21;;;;;;;14.63;11.27;;;;;;;13.78;58.31;102236.19;5070661;28;20107;-65
2023/04/30 08:06:47;;;;;;;13.88;11.70;;;;;;;13.84;59.21;102238.03;5070314;28;20069;-66
2023/04/30 08:09:12;;;;;;;15.82;11.88;;;;;;;13.92;58.87;102243.25;5068683;28;20039;-65
2023/04/30 08:11:37;;;;;;;14.27;10.88;;;;;;;13.94;59.18;102241.88;5077183;28;20020;-62
2023/04/30 08:14:03;;;;;;;14.80;11.80;;;;;;;14.07;59.54;102248.31;5079446;28;20028;-64
2023/04/30 08:16:28;;;;;;;12.77;10.90;;;;;;;14.17;58.30;102243.00;5065069;28;20063;-63
2023/04/30 08:18:54;;;;;;;13.40;10.80;;;;;;;14.23;58.44;102242.03;5065872;28;20100;-64
2023/04/30 08:21:19;;;;;;;15.65;11.20;;;;;;;14.30;58.07;102237.13;5063870;28;20020;-64
2023/04/30 08:23:45;;;;;;;12.38;10.63;;;;;;;14.40;57.67;102248.56;5053352;28;20036;-63
2023/04/30 08:26:10;;;;;;;14.88;10.77;;;;;;;14.47;57.90;102237.25;5061808;28;20036;-64
2023/04/30 08:28:35;;;;;;;14.07;11.40;;;;;;;14.57;58.34;102243.09;5066586;28;20054;-64
2023/04/30 08:31:01;;;;;;;15.30;11.77;;;;;;;14.61;57.57;102247.09;5057212;28;20032;-64
2023/04/30 08:33:26;;;;;;;14.13;11.25;;;;;;;14.66;57.52;102238.84;5052449;28;20070;-64
2023/04/30 08:35:52;;;;;;;13.00;11.60;;;;;;;14.72;56.84;102248.16;5063743;28;20051;-65
2023/04/30 08:38:18;;;;;;;11.98;10.10;;;;;;;14.74;56.34;102237.59;5061278;28;20032;-65
2023/04/30 08:40:48;;;;;;;15.93;11.32;;;;;;;14.78;56.53;102230.41;5049831;28;20514;-65
2023/04/30 08:43:14;;;;;;;13.18;11.07;;;;;;;14.81;57.20;102234.66;5055024;28;20119;-64
2023/04/30 08:45:40;;;;;;;12.80;9.43;;;;;;;14.92;57.69;102243.00;5064996;28;20051;-63
2023/04/30 08:48:10;;;;;;;13.70;11.05;;;;;;;15.00;57.95;102240.91;5050704;28;20033;-63
2023/04/30 08:50:35;;;;;;;11.63;9.80;;;;;;;14.98;55.86;102236.41;5056433;28;20024;-62
2023/04/30 08:53:01;;;;;;;11.73;10.32;;;;;;;15.05;55.14;102241.00;5069998;28;20086;-62
2023/04/30 08:55:27;;;;;;;13.07;9.75;;;;;;;15.07;54.95;102233.22;5072691;28;20032;-62
2023/04/30 08:57:53;;;;;;;12.10;10.05;;;;;;;15.11;54.72;102237.22;5055768;28;20021;-63
2023/04/30 09:00:19;;;;;;;11.30;9.90;;;;;;;15.17;54.83;102230.63;5053113;28;20491;-61
2023/04/30 09:02:45;;;;;;;14.20;9.95;;;;;;;15.21;54.98;102231.84;5054138;28;20074;-62
2023/04/30 09:05:12;;;;;;;12.23;9.27;;;;;;;15.20;53.71;102238.50;5060627;28;20067;-62
2023/04/30 09:07:41;;;;;;;15.32;10.48;;;;;;;15.25;55.05;102235.81;5059082;28;20123;-62
2023/04/30 09:10:27;;;;;;;11.48;10.27;;;;;;;15.31;56.21;102232.00;5054874;28;20036;-62
2023/04/30 09:13:03;;;;;;;11.20;10.05;;;;;;;15.35;55.38;102227.59;5064230;28;20033;-62
2023/04/30 09:15:29;;;;;;;11.48;9.68;;;;;;;15.40;54.61;102235.22;5076935;28;20415;-64
2023/04/30 09:18:16;;;;;;;13.07;9.32;;;;;;;15.50;55.16;102226.19;5087182;28;20057;-62
2023/04/30 09:20:55;;;;;;;11.90;9.35;;;;;;;15.61;54.53;102234.50;5093626;28;20642;-62
2023/04/30 09:23:21;;;;;;;11.50;9.80;;;;;;;15.65;54.09;102232.09;5094710;28;20054;-62
2023/04/30 09:25:46;;;;;;;14.43;10.93;;;;;;;15.67;54.37;102222.31;5094252;28;20035;-62
2023/04/30 09:28:13;;;;;;;12.93;10.13;;;;;;;15.78;54.29;102228.94;5093921;28;20052;-62
2023/04/30 09:30:39;;;;;;;14.07;10.93;;;;;;;15.82;54.55;102230.13;5094278;28;20031;-62
2023/04/30 09:33:05;;;;;;;13.80;10.95;;;;;;;15.83;54.60;102234.63;5077503;28;20444;-62
2023/04/30 09:35:35;;;;;;;13.07;10.75;;;;;;;15.91;55.63;102227.75;5071156;28;20115;-63
2023/04/30 09:38:01;;;;;;;13.48;11.63;;;;;;;15.93;54.80;102225.56;5076198;28;20077;-63
2023/04/30 09:40:36;;;;;;;12.20;10.63;;;;;;;15.97;53.52;102231.50;5073148;28;20052;-63
2023/04/30 09:43:02;;;;;;;12.40;10.23;;;;;;;15.97;52.72;102231.50;5073138;28;20017;-63
2023/04/30 09:45:50;;;;;;;12.10;9.45;;;;;;;16.00;54.14;102231.00;5074184;28;20460;-63
2023/04/30 09:48:17;;;;;;;11.30;10.10;;;;;;;15.99;53.40;102226.47;5093401;28;20084;-63
2023/04/30 09:50:43;;;;;;;11.27;8.88;;;;;;;16.05;53.12;102229.09;5093976;28;20483;-63
2023/04/30 09:53:12;;;;;;;10.45;8.65;;;;;;;16.05;52.97;102228.25;5093854;28;20032;-62
2023/04/30 09:55:41;;;;;;;9.85;8.55;;;;;;;16.08;53.42;102219.34;5093082;28;20078;-63
2023/04/30 09:58:06;;;;;;;11.43;9.10;;;;;;;16.07;52.72;102218.50;5093662;28;20024;-62
2023/04/30 10:00:33;;;;;;;9.38;8.10;;;;;;;16.14;53.78;102221.94;5079817;28;20054;-63
2023/04/30 10:03:06;;;;;;;8.10;7.30;;;;;;;16.10;51.83;102222.72;5064663;28;20041;-63
2023/04/30 10:05:36;;;;;;;9.40;8.13;;;;;;;16.19;52.45;102221.16;5073457;28;20380;-62
2023/04/30 10:08:03;;;;;;;12.02;8.35;;;;;;;16.20;52.24;102225.69;5072971;28;20081;-62
2023/04/30 10:10:31;;;;;;;10.00;9.00;;;;;;;16.26;53.00;102209.78;5073284;28;20079;-62
2023/04/30 10:13:01;;;;;;;10.82;8.10;;;;;;;16.25;52.27;102220.16;5073207;28;20066;-62
2023/04/30 10:15:35;;;;;;;9.65;8.30;;;;;;;16.27;52.45;102217.97;5070539;28;20036;-61
2023/04/30 10:18:13;;;;;;;8.82;7.95;;;;;;;16.34;52.52;102213.00;5054192;28;20028;-62
2023/04/30 10:20:39;;;;;;;11.00;8.77;;;;;;;16.37;52.61;102195.66;5066581;28;20043;-62
2023/04/30 10:23:06;;;;;;;12.65;8.98;;;;;;;16.43;52.22;102207.81;5064033;28;20029;-62
2023/04/30 10:25:31;;;;;;;9.18;8.27;;;;;;;16.48;52.59;102193.00;5054457;28;20468;-62
2023/04/30 10:27:57;;;;;;;9.68;8.68;;;;;;;16.49;51.86;102191.91;5053111;28;20036;-62
2023/04/30 10:30:23;;;;;;;10.20;7.90;;;;;;;16.51;51.80;102190.53;5051442;28;20028;-62
2023/04/30 10:32:54;;;;;;;6.20;5.60;;;;;;;16.78;54.93;102186.94;5057653;28;20104;-65
2023/04/30 10:35:27;;;;;;;10.25;9.25;;;;;;;16.71;51.37;102186.31;5056432;28;20040;-62
2023/04/30 10:37:58;;;;;;;10.65;7.90;;;;;;;16.80;52.04;102196.81;5061085;28;20464;-63
2023/04/30 10:40:26;;;;;;;9.07;8.18;;;;;;;16.83;51.66;102184.22;5060875;28;20086;-63
2023/04/30 10:42:53;;;;;;;9.60;8.52;;;;;;;16.85;51.13;102180.03;5051869;28;20499;-62
2023/04/30 10:45:33;;;;;;;6.50;5.78;;;;;;;17.03;52.68;102173.22;5068625;28;20060;-62
2023/04/30 10:48:01;;;;;;;9.38;8.45;;;;;;;16.88;50.97;102179.50;5068080;28;20036;-62
2023/04/30 10:50:28;;;;;;;8.80;7.90;;;;;;;16.86;51.00;102178.09;5058221;28;20036;-62
2023/04/30 10:53:04;;;;;;;9.10;7.63;;;;;;;16.90;52.64;102177.31;5055644;28;20033;-63
2023/04/30 10:55:31;;;;;;;8.70;7.80;;;;;;;16.97;51.35;102162.22;5053861;28;20119;-63
2023/04/30 10:57:57;;;;;;;11.23;8.65;;;;;;;16.97;50.71;102160.25;5054209;28;20099;-63
2023/04/30 11:00:28;;;;;;;7.88;7.07;;;;;;;17.05;50.44;102162.56;5066717;28;20430;-62
2023/04/30 11:03:02;;;;;;;7.15;5.88;;;;;;;17.07;49.89;102153.91;5068526;28;20029;-63
2023/04/30 11:05:36;;;;;;;6.90;6.20;;;;;;;17.05;49.70;102147.72;5050990;28;20025;-63
2023/04/30 11:08:02;;;;;;;6.63;5.85;;;;;;;17.20;49.59;102144.22;5059930;28;20028;-63
2023/04/30 11:10:32;;;;;;;5.70;4.97;;;;;;;17.37;50.02;102145.78;5065803;28;20028;-63
2023/04/30 11:13:03;;;;;;;6.13;5.53;;;;;;;17.41;49.01;102146.94;5054608;28;20036;-64